x

Long Key, Fl (lonf1) Weather Station

12:00pm - Fri 28th Aug 2015 All times are CDT. -4 hours from GMT.

  • Wind
    8mph, 10mph gusts
  • Sea Temp 87°f
  • Air Temp 86°f
  • Sea Pressure 1017.2mb
  • Long Key, Fl
  • Long Key, Fl

More Historic Weather Station data

Upgrade to MSW Pro to gain access to the past 30 days of data for over 8000 Wavebouys and Weather Stations around the globe.

Join Pro

Comparision Forecast

View Surf forecast
   
Fri 08/28 12:00pm 8 10 mph 1017.2mb 87f 86f
11:00am 8 9 mph 1017.2mb 87f 85f
10:00am 7 8 mph 1016.7mb 87f 86f
9:00am 5 6 mph 1016.4mb 87f 86f
8:00am 6
mph
1016.5mb 86f 85f
7:00am 8 9 mph 1015.9mb 86f 84f
6:00am 11 15 mph 1015.2mb 87f 84f
5:00am 10 11 mph 1014.8mb 87f 85f
4:00am 10 11 mph 1014.7mb 87f 85f
3:00am 10 11 mph 1014.6mb 87f 84f
2:00am 10 13 mph 1014.9mb 87f 84f
1:00am 10 11 mph 1016.1mb 87f 84f
12:00am 11 13 mph 1016.4mb 88f 86f
Thu 08/27 11:00pm 14 16 mph 1016.6mb 88f 86f
10:00pm 13 14 mph 1015.8mb 88f 85f
9:00pm 9 10 mph 1014.9mb 88f 85f
8:00pm 7 9 mph 1014.6mb 88f 85f
7:00pm 6 7 mph 1014.7mb 89f 85f
6:00pm 8 9 mph 1014.5mb 89f 85f
5:00pm 3 5 mph 1014.5mb 89f 84f
4:00pm 1 3 mph 1014.5mb 89f 85f
3:00pm  -  1 mph 1014.9mb 88f 86f
2:00pm  -  mph 1015.1mb 87f 85f
1:00pm 6
mph
1015.5mb 87f 83f
12:00pm 1 2 mph 1016.1mb 87f 82f
11:00am 10 13 mph 1015.3mb 87f 81f
10:00am 7 8 mph 1015.5mb 88f 79f
9:00am 20 23 mph 1015.6mb 88f 80f
8:00am 22 26 mph 1014.7mb 88f 81f
7:00am 15 16 mph 1014.1mb 88f 85f
6:00am 13 14 mph 1013.6mb 88f 85f
5:00am 10 11 mph 1014.1mb 89f 85f
4:00am 9 11 mph 1013.3mb 89f 85f
3:00am 10 11 mph 1014.2mb 89f 84f
2:00am 13 15 mph 1014.4mb 89f 84f
1:00am 10 13 mph 1014.3mb 89f 84f
12:00am 13 14 mph 1015.3mb 89f 82f
Wed 08/26 11:00pm 23 26 mph 1016.3mb 90f 81f
10:00pm 6 7 mph 1016mb 90f 86f
9:00pm 9
mph
1015.3mb 90f 86f
8:00pm 10
mph
1014.5mb 91f 86f
7:00pm 8
mph
1013.9mb 91f 86f
6:00pm 7 8 mph 1013.5mb 91f 87f
5:00pm 8 10 mph 1013.7mb 91f 87f
4:00pm 9 11 mph 1013.9mb 90f 87f
3:00pm 8 9 mph 1014.5mb 90f 87f
2:00pm 8 9 mph 1015.7mb 90f 87f
1:00pm 6 7 mph 1016.3mb 90f 87f
12:00pm 6 7 mph 1016.3mb 89f 87f
11:00am 5 6 mph 1016mb 89f 85f
10:00am 6
mph
1015.7mb 89f 84f
9:00am 1 2 mph 1015.2mb 89f 83f
8:00am 2 3 mph 1014.6mb 89f 82f
7:00am 5 7 mph 1013.9mb 89f 81f
6:00am 13 15 mph 1014.3mb 89f 80f
5:00am 10 13 mph 1013.7mb 89f 85f
4:00am 8 11 mph 1013.1mb 89f 85f
3:00am 13 15 mph 1013.4mb 90f 85f
2:00am 9 11 mph 1014.2mb 90f 85f
1:00am 13 15 mph 1014.3mb 90f 86f
12:00am 9 10 mph 1014.2mb 90f 85f
Tue 08/25 11:00pm 7 9 mph 1014.4mb 91f 86f
10:00pm 7 9 mph 1014.2mb 91f 86f
9:00pm 7 10 mph 1014.3mb 91f 86f
8:00pm 7 8 mph 1013.5mb 91f 86f
7:00pm  -  2 mph 1013.8mb 91f 87f
6:00pm 3 5 mph 1013.3mb 91f 87f
5:00pm 6 7 mph 1013mb 91f 87f
4:00pm 7 8 mph 1013.4mb 91f 88f
3:00pm 5 6 mph 1013.9mb 90f 88f
2:00pm 1 2 mph 1014.6mb 89f 87f
1:00pm 5
mph
1014.9mb 89f 86f
12:00pm 1
mph
1015.3mb 89f 87f
11:00am 2 3 mph 1015.4mb 89f 87f
10:00am 6 7 mph 1015mb 88f 86f
9:00am  -  1 mph 1014.9mb 89f 84f
8:00am 11 13 mph 1014.7mb 89f 79f
7:00am 7 9 mph 1014.1mb 89f 79f
6:00am 6 7 mph 1013.1mb 89f 85f
5:00am 2 3 mph 1012.8mb 89f 85f
4:00am 3 5 mph 1012.8mb 89f 85f
3:00am 7 8 mph 1013.1mb 89f 85f
2:00am 10 11 mph 1013.4mb 90f 85f
1:00am 10 13 mph 1014.1mb 90f 86f
12:00am 10 13 mph 1014.7mb 90f 86f
Mon 08/24 11:00pm 8 9 mph 1014.7mb 90f 86f
10:00pm 11 13 mph 1014mb 91f 86f
9:00pm 13 14 mph 1013.5mb 91f 87f
8:00pm 13 15 mph 1013.2mb 91f 87f
7:00pm 7 10 mph 1012.7mb 91f 87f
6:00pm 6 7 mph 1012.5mb 91f 87f